Time;durP1;ratioP1;P1;durP2;ratioP2;P2;SDS_P1;SDS_P2;PMS_P1;PMS_P2;Temp;Humidity;BMP_temperature;BMP_pressure;BME280_temperature;BME280_humidity;BME280_pressure;Samples;Min_cycle;Max_cycle;Signal;HPM_P1;HPM_P2
2023/05/03 00:01:38;;;;;;;1.90;1.80;;;;;11.90;97262.00;;;;5102155;28;20662;-68
2023/05/03 00:04:27;;;;;;;1.87;1.67;;;;;11.70;97255.00;;;;5100325;28;20191;-68
2023/05/03 00:07:17;;;;;;;2.20;2.00;;;;;11.70;97261.00;;;;5085429;28;20222;-68
2023/05/03 00:10:07;;;;;;;3.00;2.10;;;;;11.60;97256.00;;;;5098058;28;20206;-68
2023/05/03 00:12:56;;;;;;;2.03;1.73;;;;;11.90;97260.00;;;;5103927;28;20665;-68
2023/05/03 00:15:46;;;;;;;2.10;1.90;;;;;11.90;97257.00;;;;5106436;28;20276;-68
2023/05/03 00:18:35;;;;;;;3.67;1.67;;;;;11.70;97255.00;;;;5087615;28;20199;-68
2023/05/03 00:21:25;;;;;;;4.17;1.70;;;;;11.20;97258.00;;;;5105106;28;20206;-68
2023/05/03 00:24:14;;;;;;;1.60;1.50;;;;;10.70;97246.00;;;;5100576;28;20200;-69
2023/05/03 00:27:05;;;;;;;4.83;1.93;;;;;10.50;97248.00;;;;5096055;28;20223;-70
2023/05/03 00:29:54;;;;;;;2.50;2.20;;;;;11.00;97256.00;;;;5106824;28;20207;-68
2023/05/03 00:32:44;;;;;;;1.83;1.73;;;;;11.10;97246.00;;;;5101280;28;20281;-68
2023/05/03 00:35:33;;;;;;;1.40;1.30;;;;;11.20;97248.00;;;;5097157;28;20607;-69
2023/05/03 00:38:22;;;;;;;2.47;1.50;;;;;11.30;97248.00;;;;5090582;28;20194;-68
2023/05/03 00:41:12;;;;;;;1.97;1.87;;;;;11.20;97253.00;;;;5100868;28;20230;-68
2023/05/03 00:44:01;;;;;;;4.03;1.97;;;;;11.00;97243.00;;;;5095603;28;20245;-68
2023/05/03 00:46:50;;;;;;;2.93;1.80;;;;;11.20;97249.00;;;;5100706;28;20219;-68
2023/05/03 00:49:41;;;;;;;1.87;1.73;;;;;11.10;97249.00;;;;5094131;28;20202;-68
2023/05/03 00:52:30;;;;;;;1.70;1.60;;;;;11.20;97245.00;;;;5096179;28;20282;-68
2023/05/03 00:55:19;;;;;;;1.73;1.63;;;;;11.10;97238.00;;;;5104463;28;20211;-68
2023/05/03 00:58:08;;;;;;;2.40;1.63;;;;;10.90;97235.00;;;;5087961;28;20214;-69
2023/05/03 01:00:58;;;;;;;2.00;1.77;;;;;11.20;97239.00;;;;5102410;28;20259;-68
2023/05/03 01:03:47;;;;;;;1.97;1.77;;;;;11.20;97248.00;;;;5108930;28;20299;-68
2023/05/03 01:06:42;;;;;;;4.10;1.57;;;;;11.20;97247.00;;;;5096033;28;20600;-68
2023/05/03 01:09:38;;;;;;;2.40;1.70;;;;;10.90;97232.00;;;;5085743;28;20202;-69
2023/05/03 01:12:34;;;;;;;3.17;1.50;;;;;10.60;97239.00;;;;5092710;28;20207;-67
2023/05/03 01:15:36;;;;;;;1.40;1.30;;;;;11.00;97236.00;;;;5097431;28;20202;-69
2023/05/03 01:18:30;;;;;;;1.90;1.77;;;;;11.60;97239.00;;;;5099235;28;20194;-69
2023/05/03 01:21:20;;;;;;;2.27;1.73;;;;;11.70;97252.00;;;;5094459;28;20269;-69
2023/05/03 01:24:17;;;;;;;3.57;1.53;;;;;11.50;97249.00;;;;5101990;28;20300;-69
2023/05/03 01:27:08;;;;;;;2.13;1.90;;;;;11.50;97239.00;;;;5091079;28;20312;-69
2023/05/03 01:29:57;;;;;;;6.13;1.63;;;;;11.60;97238.00;;;;5102914;28;20213;-69
2023/05/03 01:32:55;;;;;;;1.77;1.37;;;;;11.10;97236.00;;;;5092407;28;20211;-66
2023/05/03 01:35:50;;;;;;;1.93;1.50;;;;;11.40;97235.00;;;;5100376;28;20575;-68
2023/05/03 01:38:39;;;;;;;2.40;1.67;;;;;11.00;97233.00;;;;5089499;28;20640;-69
2023/05/03 01:41:28;;;;;;;15.47;1.33;;;;;11.10;97245.00;;;;5098780;28;20255;-70
2023/05/03 01:44:20;;;;;;;2.93;1.53;;;;;11.10;97240.00;;;;5102328;28;20325;-69
2023/05/03 01:47:09;;;;;;;1.90;1.80;;;;;11.40;97239.00;;;;5095546;28;20222;-69
2023/05/03 01:49:58;;;;;;;1.63;1.53;;;;;11.20;97230.00;;;;5103001;28;20202;-70
2023/05/03 01:52:47;;;;;;;1.77;1.67;;;;;10.90;97225.00;;;;5088327;28;20207;-67
2023/05/03 01:55:36;;;;;;;3.73;1.50;;;;;11.20;97242.00;;;;5102723;28;20202;-67
2023/05/03 01:58:25;;;;;;;1.30;1.20;;;;;11.30;97230.00;;;;5105055;28;20209;-67
2023/05/03 02:01:15;;;;;;;1.40;1.30;;;;;10.90;97242.00;;;;5086148;28;20223;-71
2023/05/03 02:04:04;;;;;;;1.97;1.80;;;;;10.90;97232.00;;;;5089147;28;20697;-71
2023/05/03 02:06:54;;;;;;;1.20;1.10;;;;;10.80;97224.00;;;;5098442;28;20222;-69
2023/05/03 02:09:43;;;;;;;1.40;1.30;;;;;10.90;97235.00;;;;5091247;28;20196;-68
2023/05/03 02:12:32;;;;;;;7.23;5.23;;;;;11.20;97242.00;;;;5098922;28;20257;-68
2023/05/03 02:15:20;;;;;;;2.20;1.97;;;;;11.10;97239.00;;;;5085570;28;20191;-68
2023/05/03 02:18:11;;;;;;;1.43;1.33;;;;;11.00;97240.00;;;;5090171;28;20288;-67
2023/05/03 02:21:01;;;;;;;3.43;1.00;;;;;11.10;97235.00;;;;5089823;28;20234;-67
2023/05/03 02:23:50;;;;;;;1.67;1.57;;;;;11.30;97238.00;;;;5099278;28;20677;-67
2023/05/03 02:26:39;;;;;;;2.10;1.73;;;;;10.90;97230.00;;;;5097342;28;20218;-69
2023/05/03 02:29:28;;;;;;;1.60;1.50;;;;;10.90;97225.00;;;;5094411;28;20203;-67
2023/05/03 02:32:17;;;;;;;4.00;1.47;;;;;11.00;97231.00;;;;5093502;28;20211;-68
2023/05/03 02:35:08;;;;;;;1.43;1.33;;;;;10.80;97229.00;;;;5086500;28;20210;-67
2023/05/03 02:37:57;;;;;;;1.50;1.40;;;;;10.60;97224.00;;;;5096834;28;20244;-67
2023/05/03 02:40:46;;;;;;;1.67;1.57;;;;;10.60;97231.00;;;;5098500;28;20224;-67
2023/05/03 02:43:35;;;;;;;1.70;1.47;;;;;10.60;97236.00;;;;5085825;28;20203;-67
2023/05/03 02:46:24;;;;;;;1.63;1.53;;;;;10.80;97239.00;;;;5106316;28;20226;-69
2023/05/03 02:49:13;;;;;;;1.00;1.00;;;;;10.70;97220.00;;;;5100938;28;20213;-67
2023/05/03 02:52:03;;;;;;;1.80;1.40;;;;;10.90;97234.00;;;;5106754;28;20210;-67
2023/05/03 02:54:52;;;;;;;2.23;1.27;;;;;10.60;97223.00;;;;5106725;28;20575;-67
2023/05/03 02:57:41;;;;;;;1.50;1.30;;;;;10.80;97233.00;;;;5099332;28;20684;-67
2023/05/03 03:00:30;;;;;;;1.57;1.43;;;;;10.80;97231.00;;;;5087081;28;20258;-68
2023/05/03 03:03:19;;;;;;;1.60;1.50;;;;;10.80;97225.00;;;;5090693;28;20706;-67
2023/05/03 03:06:08;;;;;;;1.43;1.33;;;;;11.30;97231.00;;;;5090037;28;20246;-67
2023/05/03 03:08:59;;;;;;;3.33;1.30;;;;;11.30;97229.00;;;;5084965;28;20268;-67
2023/05/03 03:11:48;;;;;;;1.00;1.00;;;;;11.40;97234.00;;;;5088382;28;20257;-67
2023/05/03 03:14:37;;;;;;;1.30;1.20;;;;;11.30;97228.00;;;;5090800;28;20319;-67
2023/05/03 03:17:26;;;;;;;4.27;1.53;;;;;11.40;97217.00;;;;5088116;28;20216;-67
2023/05/03 03:20:15;;;;;;;3.80;1.30;;;;;11.20;97232.00;;;;5089624;28;20238;-67
2023/05/03 03:23:04;;;;;;;1.33;1.23;;;;;11.10;97225.00;;;;5090516;28;20258;-68
2023/05/03 03:25:54;;;;;;;1.20;0.97;;;;;11.10;97223.00;;;;5092779;28;20312;-68
2023/05/03 03:28:44;;;;;;;1.23;1.13;;;;;11.00;97226.00;;;;5086492;28;20657;-68
2023/05/03 03:31:33;;;;;;;1.73;1.00;;;;;11.20;97235.00;;;;5090531;28;20215;-67
2023/05/03 03:34:22;;;;;;;1.87;1.20;;;;;11.00;97227.00;;;;5091217;28;20557;-67
2023/05/03 03:37:11;;;;;;;1.03;1.03;;;;;11.20;97235.00;;;;5087551;28;20705;-67
2023/05/03 03:40:00;;;;;;;1.47;1.20;;;;;11.30;97221.00;;;;5087649;28;20215;-67
2023/05/03 03:42:50;;;;;;;2.70;1.20;;;;;11.40;97231.00;;;;5092057;28;20280;-68
2023/05/03 03:45:39;;;;;;;3.90;1.57;;;;;11.40;97238.00;;;;5092357;28;20304;-67
2023/05/03 03:48:28;;;;;;;1.47;1.37;;;;;11.50;97238.00;;;;5090166;28;20207;-67
2023/05/03 03:51:17;;;;;;;1.67;1.53;;;;;11.40;97246.00;;;;5090399;28;20192;-68
2023/05/03 03:54:06;;;;;;;4.33;1.10;;;;;11.20;97241.00;;;;5093923;28;20199;-67
2023/05/03 03:56:55;;;;;;;1.67;1.57;;;;;11.20;97236.00;;;;5087579;28;20377;-67
2023/05/03 03:59:46;;;;;;;1.60;1.50;;;;;11.10;97246.00;;;;5089839;28;20622;-69
2023/05/03 04:02:34;;;;;;;1.83;1.57;;;;;11.40;97253.00;;;;5090376;28;20694;-70
2023/05/03 04:05:23;;;;;;;1.60;1.50;;;;;11.50;97247.00;;;;5093554;28;20203;-69
2023/05/03 04:08:12;;;;;;;1.20;1.10;;;;;11.40;97248.00;;;;5083921;28;20207;-69
2023/05/03 04:11:03;;;;;;;1.40;1.27;;;;;11.20;97255.00;;;;5092588;28;20195;-70
2023/05/03 04:13:52;;;;;;;1.20;1.10;;;;;10.90;97246.00;;;;5094932;28;20677;-69
2023/05/03 04:16:42;;;;;;;1.20;1.10;;;;;10.80;97246.00;;;;5094679;28;20705;-70
2023/05/03 04:19:31;;;;;;;1.20;1.10;;;;;10.80;97257.00;;;;5090285;28;20606;-69
2023/05/03 04:22:20;;;;;;;3.77;1.70;;;;;10.80;97262.00;;;;5090950;28;20242;-69
2023/05/03 04:25:13;;;;;;;1.73;1.63;;;;;10.90;97263.00;;;;5088591;28;20203;-70
2023/05/03 04:28:03;;;;;;;1.60;1.50;;;;;11.00;97274.00;;;;5090134;28;20256;-69
2023/05/03 04:30:52;;;;;;;1.80;1.57;;;;;10.90;97276.00;;;;5089731;28;20191;-70
2023/05/03 04:33:42;;;;;;;1.17;1.07;;;;;11.10;97276.00;;;;5108094;28;20230;-70
2023/05/03 04:36:31;;;;;;;4.10;1.50;;;;;11.00;97277.00;;;;5086862;28;20308;-70
2023/05/03 04:39:20;;;;;;;3.30;1.40;;;;;10.80;97272.00;;;;5092604;28;20230;-70
2023/05/03 04:42:09;;;;;;;1.70;1.60;;;;;10.90;97278.00;;;;5093327;28;20215;-70
2023/05/03 04:44:58;;;;;;;2.23;1.60;;;;;10.80;97286.00;;;;5094140;28;20258;-70
2023/05/03 04:47:47;;;;;;;1.80;1.70;;;;;10.90;97286.00;;;;5096507;28;20227;-67
2023/05/03 04:50:38;;;;;;;1.77;1.50;;;;;10.90;97276.00;;;;5091426;28;20217;-68
2023/05/03 04:53:27;;;;;;;3.80;1.70;;;;;11.00;97290.00;;;;5097402;28;20704;-67
2023/05/03 04:56:16;;;;;;;3.87;1.30;;;;;11.20;97286.00;;;;5097301;28;20233;-67
2023/05/03 04:59:05;;;;;;;1.63;1.53;;;;;11.40;97296.00;;;;5102858;28;20290;-67
2023/05/03 05:01:54;;;;;;;1.50;1.40;;;;;11.20;97289.00;;;;5098752;28;20292;-68
2023/05/03 05:04:43;;;;;;;2.53;1.60;;;;;11.30;97285.00;;;;5086821;28;20199;-68
2023/05/03 05:07:33;;;;;;;1.57;1.47;;;;;11.20;97289.00;;;;5084192;28;20218;-67
2023/05/03 05:10:22;;;;;;;6.37;1.80;;;;;11.20;97296.00;;;;5080064;28;20207;-67
2023/05/03 05:13:11;;;;;;;1.90;1.57;;;;;11.20;97290.00;;;;5085069;28;20237;-68
2023/05/03 05:16:00;;;;;;;1.80;1.63;;;;;11.20;97291.00;;;;5098824;28;20245;-67
2023/05/03 05:18:49;;;;;;;1.97;1.83;;;;;11.20;97302.00;;;;5091393;28;20248;-67
2023/05/03 05:21:38;;;;;;;3.50;3.20;;;;;11.30;97290.00;;;;5092365;28;20950;-67
2023/05/03 05:24:28;;;;;;;5.70;2.27;;;;;11.40;97301.00;;;;5079812;28;20585;-67
2023/05/03 05:27:17;;;;;;;8.83;2.47;;;;;11.20;97294.00;;;;5090216;28;20698;-68
2023/05/03 05:30:08;;;;;;;3.70;2.50;;;;;11.00;97294.00;;;;5090150;28;20202;-68
2023/05/03 05:32:57;;;;;;;2.90;2.60;;;;;11.30;97300.00;;;;5094325;28;20202;-66
2023/05/03 05:35:46;;;;;;;4.67;2.53;;;;;11.20;97303.00;;;;5093225;28;20211;-69
2023/05/03 05:38:35;;;;;;;2.63;2.33;;;;;11.50;97307.00;;;;5087537;28;20207;-67
2023/05/03 05:41:26;;;;;;;4.37;2.93;;;;;11.60;97306.00;;;;5095850;28;20202;-68
2023/05/03 05:44:15;;;;;;;3.77;2.80;;;;;11.90;97309.00;;;;5093840;28;20199;-68
2023/05/03 05:47:05;;;;;;;2.40;2.20;;;;;11.80;97312.00;;;;5095649;28;20709;-68
2023/05/03 05:49:55;;;;;;;2.63;2.43;;;;;11.90;97315.00;;;;5088479;28;20229;-68
2023/05/03 05:52:45;;;;;;;3.07;2.60;;;;;11.80;97309.00;;;;5090728;28;20272;-69
2023/05/03 05:55:34;;;;;;;2.87;2.27;;;;;12.10;97322.00;;;;5087243;28;20642;-68
2023/05/03 05:58:24;;;;;;;2.83;2.23;;;;;11.90;97307.00;;;;5094338;28;20210;-69
2023/05/03 06:01:13;;;;;;;2.23;2.03;;;;;12.40;97316.00;;;;5081243;28;20210;-69
2023/05/03 06:04:02;;;;;;;2.97;2.47;;;;;12.80;97323.00;;;;5098969;28;20628;-69
2023/05/03 06:06:51;;;;;;;4.03;2.93;;;;;12.90;97322.00;;;;5084329;28;20214;-71
2023/05/03 06:09:41;;;;;;;2.87;2.30;;;;;12.90;97317.00;;;;5101552;28;20206;-70
2023/05/03 06:12:30;;;;;;;2.53;2.33;;;;;13.10;97320.00;;;;5087214;28;20199;-70
2023/05/03 06:15:20;;;;;;;3.40;2.30;;;;;13.10;97317.00;;;;5080831;28;21020;-70
2023/05/03 06:18:09;;;;;;;2.57;2.37;;;;;13.10;97313.00;;;;5084620;28;20194;-69
2023/05/03 06:20:58;;;;;;;3.70;2.67;;;;;13.60;97327.00;;;;5091896;28;20214;-70
2023/05/03 06:23:47;;;;;;;3.17;2.87;;;;;13.80;97330.00;;;;5088876;28;20308;-67
2023/05/03 06:26:36;;;;;;;3.43;2.37;;;;;13.90;97316.00;;;;5087807;28;20230;-67
2023/05/03 06:29:25;;;;;;;2.93;2.60;;;;;13.80;97331.00;;;;5089106;28;20388;-67
2023/05/03 06:32:16;;;;;;;3.13;2.83;;;;;14.00;97329.00;;;;5088979;28;20244;-67
2023/05/03 06:35:05;;;;;;;3.10;2.80;;;;;14.10;97322.00;;;;5092006;28;20202;-68
2023/05/03 06:37:54;;;;;;;3.13;2.83;;;;;14.50;97331.00;;;;5096279;28;20247;-68
2023/05/03 06:40:45;;;;;;;3.77;2.93;;;;;14.60;97330.00;;;;5093707;28;20618;-68
2023/05/03 06:43:34;;;;;;;3.30;3.00;;;;;14.70;97340.00;;;;5098376;28;20316;-68
2023/05/03 06:46:23;;;;;;;3.93;3.57;;;;;14.80;97340.00;;;;5089584;28;20219;-68
2023/05/03 06:49:13;;;;;;;3.67;3.30;;;;;15.00;97344.00;;;;5097371;28;20211;-68
2023/05/03 06:52:02;;;;;;;3.20;2.90;;;;;15.10;97349.00;;;;5090437;28;20706;-68
2023/05/03 06:54:52;;;;;;;3.73;3.33;;;;;14.70;97344.00;;;;5092820;28;20199;-69
2023/05/03 06:57:42;;;;;;;6.40;3.57;;;;;14.90;97347.00;;;;5080691;28;20227;-71
2023/05/03 07:00:32;;;;;;;3.80;3.50;;;;;15.10;97342.00;;;;5088119;28;20208;-68
2023/05/03 07:03:21;;;;;;;4.07;3.50;;;;;15.30;97343.00;;;;5094467;28;20230;-68
2023/05/03 07:06:11;;;;;;;4.00;3.47;;;;;15.40;97352.00;;;;5090650;28;20252;-68
2023/05/03 07:09:00;;;;;;;6.13;3.47;;;;;15.50;97345.00;;;;5086624;28;20308;-68
2023/05/03 07:11:50;;;;;;;3.57;2.90;;;;;15.60;97352.00;;;;5087692;28;20199;-68
2023/05/03 07:14:39;;;;;;;2.93;2.63;;;;;15.20;97342.00;;;;5086195;28;20555;-71
2023/05/03 07:17:28;;;;;;;4.03;3.63;;;;;15.60;97349.00;;;;5087917;28;20223;-70
2023/05/03 07:20:17;;;;;;;3.83;3.20;;;;;15.90;97343.00;;;;5081952;28;20710;-70
2023/05/03 07:23:08;;;;;;;5.27;3.40;;;;;15.80;97353.00;;;;5086660;28;20306;-70
2023/05/03 07:25:58;;;;;;;6.30;3.93;;;;;15.90;97347.00;;;;5089843;28;20248;-70
2023/05/03 07:28:47;;;;;;;3.30;3.00;;;;;16.10;97352.00;;;;5086306;28;20623;-70
2023/05/03 07:31:36;;;;;;;4.57;3.83;;;;;15.70;97344.00;;;;5088475;28;20248;-70
2023/05/03 07:34:25;;;;;;;3.50;3.20;;;;;16.30;97358.00;;;;5090708;28;20195;-70
2023/05/03 07:37:14;;;;;;;3.60;3.27;;;;;16.30;97347.00;;;;5087497;28;20625;-69
2023/05/03 07:40:06;;;;;;;4.03;3.60;;;;;16.50;97350.00;;;;5091916;28;20825;-69
2023/05/03 07:42:55;;;;;;;3.90;3.50;;;;;16.40;97347.00;;;;5082617;28;20219;-69
2023/05/03 07:45:44;;;;;;;3.67;3.37;;;;;16.70;97346.00;;;;5080815;28;20203;-68
2023/05/03 07:48:33;;;;;;;4.53;3.47;;;;;16.80;97339.00;;;;5093139;28;20242;-68
2023/05/03 07:51:22;;;;;;;3.07;2.87;;;;;17.00;97343.00;;;;5086197;28;20637;-70
2023/05/03 07:54:11;;;;;;;5.43;4.40;;;;;17.10;97335.00;;;;5093161;28;20199;-70
2023/05/03 07:57:02;;;;;;;3.23;2.80;;;;;16.80;97332.00;;;;5089980;28;20234;-69
2023/05/03 07:59:51;;;;;;;2.80;2.60;;;;;17.40;97339.00;;;;5086346;28;20223;-69
2023/05/03 08:02:40;;;;;;;4.83;3.07;;;;;17.30;97344.00;;;;5092475;28;20203;-71
2023/05/03 08:05:29;;;;;;;4.43;2.40;;;;;17.50;97349.00;;;;5088844;28;20210;-70
2023/05/03 08:08:19;;;;;;;4.77;3.30;;;;;17.70;97348.00;;;;5090690;28;20200;-71
2023/05/03 08:11:08;;;;;;;2.63;2.43;;;;;17.40;97346.00;;;;5090621;28;20214;-68
2023/05/03 08:13:58;;;;;;;2.97;2.70;;;;;17.50;97348.00;;;;5082826;28;20202;-69
2023/05/03 08:16:47;;;;;;;8.40;2.77;;;;;17.80;97349.00;;;;5087958;28;20230;-69
2023/05/03 08:19:36;;;;;;;4.00;2.90;;;;;17.10;97355.00;;;;5091721;28;20290;-71
2023/05/03 08:22:25;;;;;;;3.27;2.97;;;;;17.70;97354.00;;;;5084347;28;20615;-72
2023/05/03 08:25:16;;;;;;;4.40;2.73;;;;;18.20;97367.00;;;;5083623;28;20195;-71
2023/05/03 08:28:07;;;;;;;3.50;2.67;;;;;18.30;97368.00;;;;5086720;28;20217;-71
2023/05/03 08:30:57;;;;;;;4.40;2.90;;;;;18.30;97373.00;;;;5081470;28;20218;-71
2023/05/03 08:33:46;;;;;;;4.13;2.87;;;;;18.00;97363.00;;;;5092302;28;20198;-69
2023/05/03 08:36:36;;;;;;;4.90;3.10;;;;;18.20;97373.00;;;;5088780;28;20300;-69
2023/05/03 08:39:26;;;;;;;3.33;2.57;;;;;18.00;97362.00;;;;5088646;28;20203;-71
2023/05/03 08:42:15;;;;;;;4.60;3.03;;;;;18.50;97376.00;;;;5088426;28;20214;-71
2023/05/03 08:45:07;;;;;;;8.30;3.33;;;;;18.60;97369.00;;;;5083191;28;20301;-71
2023/05/03 08:47:57;;;;;;;3.20;2.77;;;;;18.60;97368.00;;;;5084221;28;20207;-69
2023/05/03 08:50:46;;;;;;;7.10;2.73;;;;;18.70;97373.00;;;;5080294;28;20222;-68
2023/05/03 08:53:35;;;;;;;5.27;2.90;;;;;18.40;97375.00;;;;5086804;28;20203;-71
2023/05/03 08:56:30;;;;;;;5.23;3.13;;;;;18.90;97385.00;;;;5080270;28;20215;-70
2023/05/03 08:59:19;;;;;;;5.13;2.90;;;;;18.90;97379.00;;;;5084029;28;20207;-69
2023/05/03 09:02:10;;;;;;;4.03;3.00;;;;;18.20;97381.00;;;;5086061;28;20207;-71
2023/05/03 09:05:00;;;;;;;3.17;2.53;;;;;18.10;97379.00;;;;5080152;28;20231;-70
2023/05/03 09:08:02;;;;;;;2.90;2.70;;;;;18.10;97387.00;;;;5084364;28;20216;-72
2023/05/03 09:10:51;;;;;;;3.20;2.90;;;;;18.20;97377.00;;;;5077136;28;20207;-69
2023/05/03 09:13:40;;;;;;;3.20;2.90;;;;;18.00;97381.00;;;;5090505;28;20223;-69
2023/05/03 09:16:29;;;;;;;3.47;2.80;;;;;17.90;97369.00;;;;5082157;28;20268;-73
2023/05/03 09:19:18;;;;;;;2.60;2.40;;;;;18.50;97380.00;;;;5087932;28;20199;-70
2023/05/03 09:22:08;;;;;;;3.37;3.07;;;;;18.70;97381.00;;;;5087460;28;20207;-69
2023/05/03 09:24:59;;;;;;;2.83;2.50;;;;;18.30;97366.00;;;;5089810;28;20218;-67
2023/05/03 09:28:01;;;;;;;3.93;2.53;;;;;18.90;97374.00;;;;5092038;28;20288;-70
2023/05/03 09:30:51;;;;;;;9.03;2.70;;;;;18.60;97372.00;;;;5086726;28;20209;-68
2023/05/03 09:33:40;;;;;;;3.90;2.90;;;;;18.10;97357.00;;;;5087988;28;20206;-70
2023/05/03 09:36:30;;;;;;;3.20;2.80;;;;;18.20;97360.00;;;;5082741;28;20293;-72
2023/05/03 09:39:20;;;;;;;3.37;3.00;;;;;18.90;97360.00;;;;5083475;28;20223;-70
2023/05/03 09:42:14;;;;;;;5.20;3.00;;;;;19.40;97370.00;;;;5089633;28;20203;-70
2023/05/03 09:45:03;;;;;;;3.30;3.00;;;;;18.50;97377.00;;;;5081902;28;20722;-72
2023/05/03 09:47:54;;;;;;;3.60;3.27;;;;;18.90;97377.00;;;;5084978;28;20219;-71
2023/05/03 09:50:44;;;;;;;3.50;3.03;;;;;18.70;97366.00;;;;5084686;28;20203;-69
2023/05/03 09:53:33;;;;;;;3.70;3.13;;;;;19.00;97369.00;;;;5087705;28;20249;-69
2023/05/03 09:56:25;;;;;;;3.17;2.90;;;;;18.50;97360.00;;;;5081761;28;20284;-73
2023/05/03 09:59:14;;;;;;;5.13;3.47;;;;;19.10;97359.00;;;;5086843;28;20586;-68
2023/05/03 10:02:06;;;;;;;3.70;3.40;;;;;18.70;97354.00;;;;5083497;28;20206;-73
2023/05/03 10:04:57;;;;;;;3.47;3.17;;;;;18.60;97354.00;;;;5082313;28;20236;-70
2023/05/03 10:07:46;;;;;;;3.40;3.10;;;;;18.10;97361.00;;;;5085020;28;20265;-68
2023/05/03 10:10:36;;;;;;;3.50;3.20;;;;;18.80;97356.00;;;;5085295;28;20199;-70
2023/05/03 10:13:27;;;;;;;3.47;3.17;;;;;19.90;97359.00;;;;5082825;28;20225;-70
2023/05/03 10:16:21;;;;;;;4.07;2.73;;;;;18.70;97354.00;;;;5073531;28;20215;-70
2023/05/03 10:19:13;;;;;;;4.70;2.83;;;;;19.10;97359.00;;;;5086210;28;20210;-70
2023/05/03 10:22:05;;;;;;;2.67;2.47;;;;;18.40;97357.00;;;;5077020;28;20200;-71
2023/05/03 10:25:10;;;;;;;3.73;3.33;;;;;19.00;97356.00;;;;5082756;28;20657;-67
2023/05/03 10:28:02;;;;;;;4.20;3.37;;;;;19.40;97353.00;;;;5092083;28;20198;-69
2023/05/03 10:30:53;;;;;;;3.97;3.10;;;;;19.40;97354.00;;;;5084035;28;20988;-67
2023/05/03 10:33:41;;;;;;;3.80;3.37;;;;;19.10;97357.00;;;;5078782;28;20200;-69
2023/05/03 10:36:30;;;;;;;3.63;3.27;;;;;19.70;97369.00;;;;5080711;28;20256;-70
2023/05/03 10:39:28;;;;;;;3.33;3.03;;;;;18.00;97356.00;;;;5089327;28;20203;-72
2023/05/03 10:42:17;;;;;;;4.97;3.50;;;;;19.10;97363.00;;;;5075365;28;20212;-69
2023/05/03 10:45:11;;;;;;;6.40;3.23;;;;;19.10;97359.00;;;;5070697;28;20265;-70
2023/05/03 10:48:21;;;;;;;5.40;2.77;;;;;19.30;97355.00;;;;5076220;28;20234;-69
2023/05/03 10:51:35;;;;;;;3.10;2.87;;;;;19.50;97360.00;;;;5070593;28;20216;-69
2023/05/03 10:54:24;;;;;;;3.20;2.93;;;;;19.10;97362.00;;;;5074268;28;20200;-71
2023/05/03 10:57:13;;;;;;;3.07;2.77;;;;;18.90;97357.00;;;;5082950;28;20219;-70
2023/05/03 11:00:06;;;;;;;3.67;3.03;;;;;19.00;97361.00;;;;5082311;28;20214;-68
2023/05/03 11:03:28;;;;;;;7.00;5.07;;;;;19.00;97355.00;;;;5082541;28;20203;-69
2023/05/03 11:06:31;;;;;;;3.33;3.00;;;;;19.10;97361.00;;;;5081169;28;20837;-69
2023/05/03 11:09:20;;;;;;;3.93;3.63;;;;;19.10;97361.00;;;;5088244;28;20207;-69
2023/05/03 11:12:09;;;;;;;3.00;2.70;;;;;18.60;97355.00;;;;5082360;28;20584;-72
2023/05/03 11:14:58;;;;;;;3.93;3.07;;;;;19.10;97359.00;;;;5087653;28;20195;-70
2023/05/03 11:17:47;;;;;;;4.50;4.10;;;;;19.10;97357.00;;;;5086646;28;20607;-72
2023/05/03 11:20:38;;;;;;;2.77;2.57;;;;;19.20;97369.00;;;;5086015;28;20599;-70
2023/05/03 11:23:28;;;;;;;3.67;3.30;;;;;18.60;97366.00;;;;5088145;28;20296;-70
2023/05/03 11:26:17;;;;;;;3.20;3.00;;;;;18.70;97374.00;;;;5086143;28;20324;-69
2023/05/03 11:29:09;;;;;;;4.97;3.43;;;;;18.70;97375.00;;;;5088786;28;20697;-70
2023/05/03 11:31:58;;;;;;;3.73;3.23;;;;;18.40;97374.00;;;;5082192;28;20214;-72
2023/05/03 11:34:47;;;;;;;3.07;2.77;;;;;18.10;97368.00;;;;5084521;28;20208;-67
2023/05/03 11:37:37;;;;;;;3.30;3.03;;;;;18.10;97376.00;;;;5073837;28;20702;-70
2023/05/03 11:40:27;;;;;;;3.27;2.70;;;;;18.50;97379.00;;;;5076013;28;20221;-68
2023/05/03 11:43:16;;;;;;;3.50;3.20;;;;;18.50;97367.00;;;;5081417;28;20654;-69
2023/05/03 11:46:05;;;;;;;5.43;3.97;;;;;18.70;97362.00;;;;5090829;28;20708;-68
2023/05/03 11:48:54;;;;;;;4.63;3.47;;;;;18.40;97368.00;;;;5087046;28;20192;-69
2023/05/03 11:51:43;;;;;;;5.27;3.70;;;;;18.80;97372.00;;;;5082160;28;20207;-69
2023/05/03 11:54:37;;;;;;;3.67;3.27;;;;;18.80;97364.00;;;;5091736;28;20717;-72
2023/05/03 11:57:26;;;;;;;3.33;3.03;;;;;18.80;97356.00;;;;5084882;28;20231;-70
2023/05/03 12:00:16;;;;;;;4.90;3.43;;;;;18.60;97353.00;;;;5085219;28;20207;-69
2023/05/03 12:03:07;;;;;;;4.10;3.23;;;;;19.00;97356.00;;;;5090282;28;20207;-68
2023/05/03 12:05:56;;;;;;;4.27;2.83;;;;;18.50;97362.00;;;;5079288;28;20576;-69
2023/05/03 12:08:46;;;;;;;3.03;2.80;;;;;18.40;97361.00;;;;5083198;28;20697;-71
2023/05/03 12:11:42;;;;;;;3.27;2.97;;;;;18.80;97366.00;;;;5092890;28;20204;-71
2023/05/03 12:14:56;;;;;;;6.43;2.73;;;;;18.70;97368.00;;;;5088615;28;20242;-69
2023/05/03 12:17:46;;;;;;;2.97;2.47;;;;;18.60;97366.00;;;;5083166;28;20222;-69
2023/05/03 12:20:38;;;;;;;4.97;4.50;;;;;18.80;97360.00;;;;5086395;28;20209;-70
2023/05/03 12:23:40;;;;;;;4.97;3.07;;;;;18.50;97366.00;;;;5086026;28;20693;-71
2023/05/03 12:26:29;;;;;;;3.30;3.00;;;;;18.70;97372.00;;;;5088415;28;20235;-71
2023/05/03 12:29:20;;;;;;;3.60;2.97;;;;;18.60;97371.00;;;;5085994;28;20211;-72
2023/05/03 12:32:10;;;;;;;4.37;3.60;;;;;18.40;97365.00;;;;5081967;28;20207;-71
2023/05/03 12:34:59;;;;;;;3.07;2.53;;;;;18.50;97375.00;;;;5091888;28;20199;-71
2023/05/03 12:37:50;;;;;;;3.43;3.13;;;;;18.50;97371.00;;;;5083640;28;20835;-71
2023/05/03 12:40:43;;;;;;;2.90;2.70;;;;;18.10;97367.00;;;;5091083;28;20210;-68
2023/05/03 12:43:33;;;;;;;3.07;2.53;;;;;17.90;97369.00;;;;5093474;28;20214;-70
2023/05/03 12:46:23;;;;;;;2.70;2.43;;;;;18.10;97359.00;;;;5096500;28;20226;-72
2023/05/03 12:49:21;;;;;;;4.70;2.97;;;;;18.00;97363.00;;;;5091468;28;20211;-70
2023/05/03 12:52:11;;;;;;;4.23;3.43;;;;;17.80;97359.00;;;;5092958;28;20207;-71
2023/05/03 12:55:20;;;;;;;3.83;2.93;;;;;17.90;97362.00;;;;5089156;28;20199;-71
2023/05/03 12:58:12;;;;;;;2.67;2.30;;;;;17.10;97358.00;;;;5088763;28;20214;-73
2023/05/03 13:01:22;;;;;;;5.53;3.00;;;;;17.70;97362.00;;;;5086825;28;20554;-72
2023/05/03 13:04:14;;;;;;;4.13;2.70;;;;;17.60;97356.00;;;;5098673;28;20213;-72
2023/05/03 13:07:07;;;;;;;3.40;3.10;;;;;17.70;97356.00;;;;5094504;28;20230;-72
2023/05/03 13:10:00;;;;;;;3.90;2.80;;;;;17.60;97349.00;;;;5096777;28;20203;-71
2023/05/03 13:12:52;;;;;;;5.37;2.87;;;;;17.80;97354.00;;;;5091570;28;20600;-72
2023/05/03 13:15:42;;;;;;;3.20;2.90;;;;;17.90;97347.00;;;;5090874;28;20666;-72
2023/05/03 13:18:32;;;;;;;3.30;2.43;;;;;17.70;97344.00;;;;5094381;28;20206;-71
2023/05/03 13:21:22;;;;;;;3.43;3.13;;;;;17.50;97344.00;;;;5092201;28;20614;-71
2023/05/03 13:24:11;;;;;;;3.10;2.90;;;;;17.90;97341.00;;;;5095426;28;20696;-70
2023/05/03 13:27:00;;;;;;;3.60;3.30;;;;;18.00;97344.00;;;;5095124;28;20241;-72
2023/05/03 13:29:49;;;;;;;3.37;3.10;;;;;17.80;97334.00;;;;5097262;28;20307;-71
2023/05/03 13:32:38;;;;;;;3.90;2.73;;;;;18.10;97344.00;;;;5091555;28;20355;-72
2023/05/03 13:35:28;;;;;;;3.87;2.60;;;;;18.20;97339.00;;;;5092968;28;20686;-72
2023/05/03 13:38:17;;;;;;;5.70;3.57;;;;;18.30;97336.00;;;;5094854;28;20202;-72
2023/05/03 13:41:07;;;;;;;3.27;3.00;;;;;18.20;97338.00;;;;5099802;28;20296;-72
2023/05/03 13:43:56;;;;;;;3.87;3.40;;;;;18.10;97331.00;;;;5090129;28;20195;-71
2023/05/03 13:46:45;;;;;;;3.47;2.80;;;;;18.10;97337.00;;;;5096196;28;20740;-71
2023/05/03 13:49:34;;;;;;;3.37;2.93;;;;;18.40;97334.00;;;;5092674;28;20202;-71
2023/05/03 13:52:24;;;;;;;5.30;2.90;;;;;18.00;97335.00;;;;5089410;28;20210;-71
2023/05/03 13:55:13;;;;;;;3.13;2.83;;;;;18.10;97334.00;;;;5088828;28;20554;-72
2023/05/03 13:58:02;;;;;;;5.17;3.17;;;;;18.20;97339.00;;;;5096137;28;20712;-73
2023/05/03 14:00:51;;;;;;;3.00;2.80;;;;;18.40;97334.00;;;;5088770;28;20199;-72
2023/05/03 14:03:40;;;;;;;4.07;3.47;;;;;18.50;97337.00;;;;5095906;28;20226;-72
2023/05/03 14:06:29;;;;;;;3.43;2.97;;;;;18.40;97336.00;;;;5093371;28;20237;-71
2023/05/03 14:09:22;;;;;;;4.07;2.87;;;;;18.50;97331.00;;;;5085406;28;20207;-73
2023/05/03 14:12:11;;;;;;;5.23;2.40;;;;;18.40;97327.00;;;;5097634;28;20209;-72
2023/05/03 14:15:03;;;;;;;4.17;3.33;;;;;18.00;97325.00;;;;5089987;28;20206;-70